createdAt,value
2022-10-23T00:02:08.814Z,100218.34
2022-10-23T00:12:57.988Z,100202.59
2022-10-23T00:18:20.267Z,100204.50
2022-10-23T00:23:42.807Z,100151.84
2022-10-23T00:29:05.427Z,100148.09
2022-10-23T00:34:28.556Z,100126.63
2022-10-23T00:39:51.834Z,100120.00
2022-10-23T00:45:27.288Z,100075.94
2022-10-23T00:50:50.610Z,100117.09
2022-10-23T00:56:12.648Z,100106.72
2022-10-23T01:01:35.524Z,100121.75
2022-10-23T01:07:06.888Z,100083.06
2022-10-23T01:12:40.908Z,100089.22
2022-10-23T01:18:28.126Z,100150.66
2022-10-23T01:23:56.967Z,100147.03
2022-10-23T01:29:42.562Z,100147.72
2022-10-23T01:35:17.509Z,100152.03
2022-10-23T01:40:51.127Z,100149.09
2022-10-23T01:46:17.207Z,100147.78
2022-10-23T01:51:42.128Z,100121.78
2022-10-23T01:57:08.426Z,100139.50
2022-10-23T02:02:33.893Z,100138.47
2022-10-23T02:07:58.767Z,100133.66
2022-10-23T02:14:02.589Z,100127.00
2022-10-23T02:19:43.467Z,100116.56
2022-10-23T02:25:14.468Z,100103.59
2022-10-23T02:30:42.866Z,100085.59
2022-10-23T02:36:07.955Z,100104.28
2022-10-23T02:41:32.695Z,100106.94
2022-10-23T02:47:13.769Z,100104.28
2022-10-23T02:53:16.848Z,100098.94
2022-10-23T02:58:38.707Z,100098.94
2022-10-23T03:04:03.780Z,100093.84
2022-10-23T03:09:27.772Z,100078.53
2022-10-23T03:14:51.169Z,100071.03
2022-10-23T03:20:14.186Z,100089.34
2022-10-23T03:25:37.448Z,100072.19
2022-10-23T03:30:59.395Z,100020.31
2022-10-23T03:36:22.486Z,100081.03
2022-10-23T03:41:45.009Z,100075.97
2022-10-23T03:47:10.748Z,100075.44
2022-10-23T03:52:32.390Z,100070.34
2022-10-23T03:57:55.311Z,100067.72
2022-10-23T04:03:17.606Z,100056.19
2022-10-23T04:08:39.761Z,100055.69
2022-10-23T04:14:08.535Z,100062.38
2022-10-23T04:19:33.029Z,100058.91
2022-10-23T04:24:55.191Z,100051.94
2022-10-23T04:30:17.149Z,100027.22
2022-10-23T04:35:40.913Z,100055.16
2022-10-23T04:41:03.128Z,100036.72
2022-10-23T04:46:25.130Z,100033.72
2022-10-23T04:51:47.546Z,100031.38
2022-10-23T04:57:30.107Z,100036.75
2022-10-23T05:03:04.249Z,100036.75
2022-10-23T05:08:32.114Z,100029.00
2022-10-23T05:14:12.608Z,100034.34
2022-10-23T05:19:41.047Z,100028.50
2022-10-23T05:25:03.233Z,100027.16
2022-10-23T05:30:27.509Z,99968.41
2022-10-23T05:35:50.047Z,99964.41
2022-10-23T05:41:12.670Z,100017.09
2022-10-23T05:46:35.100Z,99993.78
2022-10-23T05:52:23.297Z,100009.88
2022-10-23T05:57:59.652Z,99993.56
2022-10-23T06:03:41.987Z,100009.44
2022-10-23T06:09:07.079Z,99994.44
2022-10-23T06:14:37.647Z,99951.22
2022-10-23T06:20:02.948Z,99996.59
2022-10-23T06:25:30.438Z,99989.41
2022-10-23T06:30:56.168Z,99909.69
2022-10-23T06:36:18.848Z,99906.78
2022-10-23T06:41:42.947Z,99960.00
2022-10-23T06:47:05.658Z,99907.19
2022-10-23T06:52:47.712Z,99914.22
2022-10-23T06:58:15.727Z,99914.31
2022-10-23T07:04:07.208Z,99907.91
2022-10-23T07:09:30.507Z,99957.31
2022-10-23T07:15:12.057Z,99853.94
2022-10-23T07:20:39.859Z,99872.19
2022-10-23T07:26:15.835Z,99922.69
2022-10-23T07:31:39.334Z,99927.22
2022-10-23T07:37:19.252Z,99911.34
2022-10-23T07:42:42.039Z,99921.66
2022-10-23T07:48:04.252Z,99914.09
2022-10-23T07:53:42.870Z,99924.44
2022-10-23T07:59:38.150Z,99896.94
2022-10-23T08:05:05.218Z,99914.56
2022-10-23T08:10:42.106Z,99902.75
2022-10-23T08:16:08.881Z,99903.22
2022-10-23T08:21:49.386Z,99888.50
2022-10-23T08:27:11.828Z,99880.44
2022-10-23T08:32:56.484Z,99846.31
2022-10-23T08:38:43.189Z,99837.06
2022-10-23T08:44:38.966Z,99838.16
2022-10-23T08:50:36.338Z,99855.69
2022-10-23T08:56:05.407Z,99811.09
2022-10-23T09:01:47.938Z,99820.06
2022-10-23T09:07:27.407Z,99800.91
2022-10-23T09:12:50.369Z,99800.28
2022-10-23T09:18:21.208Z,99782.63
2022-10-23T09:23:57.523Z,99781.84
2022-10-23T09:30:01.784Z,99805.75
2022-10-23T09:35:33.388Z,99799.97
2022-10-23T09:41:00.792Z,99776.22
2022-10-23T09:46:23.703Z,99796.31
2022-10-23T09:57:45.375Z,99764.56
2022-10-23T10:03:23.948Z,99777.38
2022-10-23T10:09:04.849Z,99775.34
2022-10-23T10:14:49.676Z,99737.28
2022-10-23T10:20:23.688Z,99761.47
2022-10-23T10:26:02.508Z,99747.50
2022-10-23T10:31:43.681Z,99733.28
2022-10-23T10:37:39.711Z,99727.34
2022-10-23T10:43:13.790Z,99713.69
2022-10-23T10:48:50.969Z,99709.34
2022-10-23T10:54:44.828Z,99701.13
2022-10-23T11:00:16.695Z,99684.38
2022-10-23T11:05:40.168Z,99684.72
2022-10-23T11:11:13.956Z,99677.97
2022-10-23T11:16:43.250Z,99677.13
2022-10-23T11:22:25.050Z,99670.00
2022-10-23T11:28:20.017Z,99671.25
2022-10-23T11:34:05.470Z,99664.38
2022-10-23T11:39:30.088Z,99657.84
2022-10-23T11:44:56.502Z,99653.06
2022-10-23T11:50:32.687Z,99635.97
2022-10-23T11:56:13.016Z,99633.53
2022-10-23T12:01:42.397Z,99616.06
2022-10-23T12:07:15.829Z,99595.63
2022-10-23T12:12:41.569Z,99593.53
2022-10-23T12:18:30.232Z,99594.53
2022-10-23T12:24:05.030Z,99615.66
2022-10-23T12:29:30.624Z,99604.34
2022-10-23T12:35:25.449Z,99593.41
2022-10-23T12:40:54.064Z,99589.06
2022-10-23T12:46:28.178Z,99592.84
2022-10-23T12:52:05.335Z,99587.25
2022-10-23T12:57:30.820Z,99580.75
2022-10-23T13:03:01.988Z,99573.19
2022-10-23T13:08:33.228Z,99564.44
2022-10-23T13:14:29.424Z,99561.09
2022-10-23T13:19:51.639Z,99556.31
2022-10-23T13:25:27.645Z,99565.66
2022-10-23T13:31:08.588Z,99557.41
2022-10-23T13:36:33.029Z,99552.28
2022-10-23T13:41:55.828Z,99549.81
2022-10-23T13:47:18.249Z,99541.53
2022-10-23T13:52:40.505Z,99535.94
2022-10-23T13:58:03.829Z,99522.25
2022-10-23T14:03:26.955Z,99510.25
2022-10-23T14:08:49.248Z,99503.31
2022-10-23T14:14:11.676Z,99513.97
2022-10-23T14:25:06.675Z,99514.47
2022-10-23T14:30:31.431Z,99502.72
2022-10-23T14:35:57.700Z,99492.00
2022-10-23T14:41:33.089Z,99481.88
2022-10-23T14:47:09.709Z,99481.09
2022-10-23T14:52:45.706Z,99476.25
2022-10-23T14:58:12.507Z,99462.41
2022-10-23T15:10:43.948Z,99458.63
2022-10-23T15:36:41.997Z,99435.41
2022-10-23T15:42:30.403Z,99431.38
2022-10-23T15:49:22.801Z,99439.63
2022-10-23T16:10:34.902Z,99412.81
2022-10-23T16:16:08.571Z,99433.31
2022-10-23T16:51:16.939Z,99361.63
2022-10-23T16:57:32.908Z,99361.56
2022-10-23T17:03:02.987Z,99367.25
2022-10-23T17:08:28.284Z,99355.56
2022-10-23T17:13:59.655Z,99369.06
2022-10-23T17:19:46.295Z,99349.66
2022-10-23T17:25:14.781Z,99344.06
2022-10-23T17:30:41.886Z,99359.84
2022-10-23T17:36:07.712Z,99353.84
2022-10-23T17:41:30.994Z,99352.53
2022-10-23T17:46:58.734Z,99333.66
2022-10-23T17:52:24.420Z,99326.06
2022-10-23T17:57:49.055Z,99311.16
2022-10-23T18:03:19.773Z,99329.19
2022-10-23T18:08:44.552Z,99301.09
2022-10-23T18:14:26.233Z,99310.22
2022-10-23T18:20:01.651Z,99316.06
2022-10-23T18:25:25.951Z,99313.25
2022-10-23T18:30:53.414Z,99305.13
2022-10-23T18:36:25.308Z,99305.78
2022-10-23T18:41:50.168Z,99291.28
2022-10-23T18:52:38.740Z,99268.81
2022-10-23T18:58:01.147Z,99284.72
2022-10-23T19:03:22.942Z,99262.31
2022-10-23T19:08:46.629Z,99268.66
2022-10-23T19:14:11.226Z,99267.78
2022-10-23T19:19:40.289Z,99251.47
2022-10-23T19:25:10.867Z,99243.00
2022-10-23T19:30:33.990Z,99222.75
2022-10-23T19:36:00.295Z,99241.47
2022-10-23T19:41:25.948Z,99231.75
2022-10-23T19:46:49.189Z,99227.41
2022-10-23T19:52:22.343Z,99203.94
2022-10-23T19:57:59.727Z,99204.97
2022-10-23T20:03:40.962Z,99211.28
2022-10-23T20:15:22.548Z,99175.41
2022-10-23T20:26:53.869Z,99178.94
2022-10-23T20:32:25.797Z,99148.59
2022-10-23T20:38:00.875Z,99145.13
2022-10-23T20:43:46.448Z,99156.50
2022-10-23T20:49:31.730Z,99137.59
2022-10-23T20:54:58.375Z,99138.63
2022-10-23T21:00:21.174Z,99121.47
2022-10-23T21:05:44.147Z,99123.63
2022-10-23T21:11:06.748Z,99123.03
2022-10-23T21:16:34.506Z,99122.56
2022-10-23T21:22:00.551Z,99111.25
2022-10-23T21:27:22.560Z,99107.63
2022-10-23T21:32:44.561Z,99083.34
2022-10-23T21:38:07.147Z,99105.59
2022-10-23T21:43:32.188Z,99086.47
2022-10-23T21:48:54.987Z,99090.75
2022-10-23T21:54:16.689Z,99068.06
2022-10-23T21:59:39.010Z,99084.53
2022-10-23T22:05:01.788Z,99085.84
2022-10-23T22:10:25.038Z,99064.03
2022-10-23T22:15:47.281Z,99074.31
2022-10-23T22:21:19.548Z,99043.69
2022-10-23T22:26:45.226Z,99064.97
2022-10-23T22:32:07.563Z,99048.25
2022-10-23T22:37:29.339Z,99036.50
2022-10-23T22:42:51.340Z,99028.00
2022-10-23T22:48:13.229Z,99024.84
2022-10-23T22:53:36.163Z,99034.94
2022-10-23T22:58:59.638Z,99030.88
2022-10-23T23:04:38.903Z,99009.50
2022-10-23T23:10:10.549Z,99037.53
2022-10-23T23:15:41.917Z,98997.94
2022-10-23T23:21:06.989Z,99020.53
2022-10-23T23:26:31.508Z,99012.41
2022-10-23T23:31:54.016Z,99007.25
2022-10-23T23:37:16.980Z,98977.75
2022-10-23T23:42:45.687Z,98967.81
2022-10-23T23:48:08.507Z,98999.22
2022-10-23T23:53:31.147Z,98968.75
2022-10-23T23:58:53.368Z,98966.66
